createdAt,value
2018-05-11T00:02:21.314Z,10.03
2018-05-11T00:04:49.234Z,10.07
2018-05-11T00:07:17.653Z,10.40
2018-05-11T00:09:45.197Z,9.97
2018-05-11T00:12:13.040Z,9.50
2018-05-11T00:14:41.631Z,9.73
2018-05-11T00:17:09.181Z,9.83
2018-05-11T00:19:37.605Z,11.37
2018-05-11T00:22:05.254Z,8.57
2018-05-11T00:24:32.945Z,8.70
2018-05-11T00:27:00.599Z,9.37
2018-05-11T00:29:28.145Z,9.07
2018-05-11T00:31:55.699Z,9.73
2018-05-11T00:34:23.579Z,8.90
2018-05-11T00:36:51.135Z,9.17
2018-05-11T00:39:18.913Z,10.13
2018-05-11T00:41:46.776Z,9.90
2018-05-11T00:44:14.352Z,9.53
2018-05-11T00:46:42.299Z,9.77
2018-05-11T00:49:10.155Z,10.80
2018-05-11T00:51:37.836Z,9.70
2018-05-11T00:54:05.635Z,10.07
2018-05-11T00:56:33.548Z,10.23
2018-05-11T00:59:01.109Z,10.70
2018-05-11T01:01:28.828Z,8.67
2018-05-11T01:03:56.808Z,8.33
2018-05-11T01:06:24.608Z,9.30
2018-05-11T01:08:52.159Z,9.10
2018-05-11T01:11:20.017Z,8.13
2018-05-11T01:13:47.567Z,9.40
2018-05-11T01:16:15.112Z,9.43
2018-05-11T01:18:42.704Z,8.70
2018-05-11T01:21:10.253Z,11.10
2018-05-11T01:23:38.040Z,8.67
2018-05-11T01:26:05.636Z,8.30
2018-05-11T01:28:33.186Z,9.80
2018-05-11T01:31:01.503Z,10.00
2018-05-11T01:33:29.547Z,9.90
2018-05-11T01:35:57.155Z,10.40
2018-05-11T01:38:24.964Z,10.10
2018-05-11T01:40:52.682Z,10.37
2018-05-11T01:43:20.230Z,9.90
2018-05-11T01:45:48.008Z,10.53
2018-05-11T01:48:16.392Z,9.80
2018-05-11T01:50:44.704Z,10.23
2018-05-11T01:53:12.436Z,9.13
2018-05-11T01:55:40.666Z,9.23
2018-05-11T01:58:08.218Z,9.37
2018-05-11T02:00:36.020Z,10.27
2018-05-11T02:03:03.713Z,9.33
2018-05-11T02:05:32.221Z,8.90
2018-05-11T02:08:00.198Z,10.83
2018-05-11T02:10:27.784Z,10.87
2018-05-11T02:12:55.336Z,9.27
2018-05-11T02:15:22.993Z,11.37
2018-05-11T02:17:50.700Z,9.23
2018-05-11T02:20:19.039Z,10.60
2018-05-11T02:22:46.584Z,10.40
2018-05-11T02:25:14.272Z,9.40
2018-05-11T02:27:41.824Z,10.00
2018-05-11T02:30:10.209Z,9.67
2018-05-11T02:32:37.786Z,10.63
2018-05-11T02:35:05.341Z,10.03
2018-05-11T02:37:33.190Z,9.30
2018-05-11T02:40:00.891Z,9.67
2018-05-11T02:42:28.488Z,9.73
2018-05-11T02:44:56.047Z,10.00
2018-05-11T02:47:23.795Z,9.13
2018-05-11T02:49:51.474Z,9.50
2018-05-11T02:52:19.149Z,9.30
2018-05-11T02:54:47.046Z,9.60
2018-05-11T02:57:15.633Z,9.80
2018-05-11T02:59:43.204Z,10.17
2018-05-11T03:02:11.020Z,9.80
2018-05-11T03:04:38.620Z,9.63
2018-05-11T03:07:06.339Z,9.93
2018-05-11T03:09:34.072Z,10.23
2018-05-11T03:12:01.858Z,10.00
2018-05-11T03:14:29.484Z,9.90
2018-05-11T03:16:57.101Z,8.53
2018-05-11T03:19:24.822Z,8.73
2018-05-11T03:21:52.364Z,9.23
2018-05-11T03:24:20.373Z,9.93
2018-05-11T03:26:48.041Z,9.83
2018-05-11T03:29:15.888Z,9.90
2018-05-11T03:31:43.481Z,9.43
2018-05-11T03:34:11.075Z,9.13
2018-05-11T03:36:38.628Z,9.93
2018-05-11T03:39:06.210Z,9.77
2018-05-11T03:41:33.964Z,9.83
2018-05-11T03:44:01.508Z,9.57
2018-05-11T03:46:29.105Z,9.53
2018-05-11T03:48:56.719Z,9.97
2018-05-11T03:51:24.301Z,9.70
2018-05-11T03:53:52.077Z,10.30
2018-05-11T03:56:20.001Z,10.10
2018-05-11T03:58:48.521Z,11.10
2018-05-11T04:01:27.909Z,12.37
2018-05-11T04:04:07.255Z,9.33
2018-05-11T04:06:46.680Z,9.73
2018-05-11T04:09:15.132Z,10.43
2018-05-11T04:11:42.699Z,10.77
2018-05-11T04:14:10.288Z,10.73
2018-05-11T04:16:38.671Z,11.00
2018-05-11T04:19:06.325Z,9.80
2018-05-11T04:21:34.257Z,10.00
2018-05-11T04:24:01.817Z,9.57
2018-05-11T04:26:30.402Z,9.73
2018-05-11T04:28:58.013Z,10.30
2018-05-11T04:31:25.733Z,10.10
2018-05-11T04:33:53.284Z,9.97
2018-05-11T04:36:20.868Z,9.63
2018-05-11T04:38:49.268Z,8.90
2018-05-11T04:41:16.961Z,8.80
2018-05-11T04:43:44.668Z,8.23
2018-05-11T04:46:12.982Z,8.67
2018-05-11T04:48:40.531Z,9.00
2018-05-11T04:51:08.128Z,8.20
2018-05-11T04:53:35.864Z,7.57
2018-05-11T04:56:03.434Z,7.33
2018-05-11T04:58:31.016Z,6.70
2018-05-11T05:00:58.895Z,7.30
2018-05-11T05:03:26.450Z,7.10
2018-05-11T05:05:54.327Z,6.90
2018-05-11T05:08:21.932Z,7.67
2018-05-11T05:10:49.497Z,6.83
2018-05-11T05:13:17.220Z,7.60
2018-05-11T05:15:45.551Z,5.87
2018-05-11T05:18:14.220Z,6.40
2018-05-11T05:20:41.839Z,5.53
2018-05-11T05:23:10.231Z,5.73
2018-05-11T05:25:37.780Z,10.63
2018-05-11T05:28:05.606Z,7.47
2018-05-11T05:30:33.157Z,9.60
2018-05-11T05:33:00.908Z,8.33
2018-05-11T05:35:28.628Z,9.80
2018-05-11T05:37:56.935Z,7.37
2018-05-11T05:40:24.489Z,6.63
2018-05-11T05:42:52.080Z,6.70
2018-05-11T05:45:19.632Z,6.30
2018-05-11T05:47:47.180Z,6.40
2018-05-11T05:50:14.774Z,6.37
2018-05-11T05:52:43.093Z,5.23
2018-05-11T05:55:10.648Z,5.40
2018-05-11T05:57:38.240Z,6.27
2018-05-11T06:00:05.949Z,6.67
2018-05-11T06:02:33.614Z,5.83
2018-05-11T06:05:01.189Z,5.77
2018-05-11T06:07:28.747Z,4.80
2018-05-11T06:09:56.408Z,5.17
2018-05-11T06:12:24.629Z,4.90
2018-05-11T06:14:52.337Z,4.60
2018-05-11T06:17:19.884Z,4.20
2018-05-11T06:19:47.712Z,4.40
2018-05-11T06:22:15.264Z,4.20
2018-05-11T06:24:42.915Z,5.47
2018-05-11T06:27:12.069Z,6.23
2018-05-11T06:29:39.609Z,6.47
2018-05-11T06:32:07.921Z,6.17
2018-05-11T06:34:35.646Z,7.17
2018-05-11T06:37:03.324Z,7.30
2018-05-11T06:39:30.873Z,6.87
2018-05-11T06:41:59.253Z,6.77
2018-05-11T06:44:26.814Z,6.27
2018-05-11T06:46:54.368Z,6.33
2018-05-11T06:49:22.071Z,6.27
2018-05-11T06:51:49.645Z,9.07
2018-05-11T06:54:17.201Z,6.90
2018-05-11T06:56:45.047Z,6.60
2018-05-11T06:59:12.595Z,5.90
2018-05-11T07:01:40.170Z,6.53
2018-05-11T07:04:08.064Z,6.07
2018-05-11T07:06:35.619Z,6.03
2018-05-11T07:09:03.179Z,5.47
2018-05-11T07:11:30.792Z,5.97
2018-05-11T07:13:58.343Z,5.83
2018-05-11T07:16:25.973Z,5.40
2018-05-11T07:18:53.528Z,5.40
2018-05-11T07:21:21.077Z,5.53
2018-05-11T07:23:48.939Z,5.80
2018-05-11T07:26:16.527Z,5.90
2018-05-11T07:28:44.076Z,6.00
2018-05-11T07:31:12.545Z,6.13
2018-05-11T07:33:40.172Z,5.80
2018-05-11T07:36:07.719Z,6.03
2018-05-11T07:38:35.323Z,6.13
2018-05-11T07:41:03.177Z,6.27
2018-05-11T07:43:30.808Z,6.20
2018-05-11T07:45:58.296Z,7.07
2018-05-11T07:48:25.945Z,6.33
2018-05-11T07:50:53.502Z,6.30
2018-05-11T07:53:21.222Z,6.83
2018-05-11T07:55:48.963Z,6.27
2018-05-11T07:58:17.419Z,6.13
2018-05-11T08:00:45.052Z,6.10
2018-05-11T08:03:12.643Z,6.30
2018-05-11T08:05:40.603Z,6.50
2018-05-11T08:08:08.324Z,5.25
2018-05-11T08:10:36.120Z,10.60
2018-05-11T08:13:03.784Z,5.45
2018-05-11T08:15:31.626Z,5.18
2018-05-11T08:17:59.568Z,33.45
2018-05-11T08:20:27.387Z,10.18
2018-05-11T08:22:54.988Z,5.57
2018-05-11T08:25:22.611Z,4.93
2018-05-11T08:27:50.933Z,4.65
2018-05-11T08:30:18.836Z,7.18
2018-05-11T08:32:46.421Z,6.20
2018-05-11T08:35:14.009Z,6.25
2018-05-11T08:37:42.444Z,5.25
2018-05-11T08:40:10.020Z,4.85
2018-05-11T08:42:37.777Z,4.93
2018-05-11T08:45:05.568Z,12.57
2018-05-11T08:47:33.151Z,5.87
2018-05-11T08:50:00.711Z,5.60
2018-05-11T08:52:28.284Z,6.63
2018-05-11T08:54:56.004Z,16.83
2018-05-11T08:57:23.647Z,12.83
2018-05-11T08:59:51.196Z,11.43
2018-05-11T09:02:18.895Z,9.87
2018-05-11T09:04:47.219Z,19.83
2018-05-11T09:07:14.826Z,14.03
2018-05-11T09:09:43.175Z,14.20
2018-05-11T09:12:10.927Z,5.62
2018-05-11T09:14:38.592Z,5.53
2018-05-11T09:17:06.660Z,5.10
2018-05-11T09:19:34.227Z,5.30
2018-05-11T09:22:02.152Z,4.77
2018-05-11T09:24:29.890Z,5.27
2018-05-11T09:26:58.398Z,5.47
2018-05-11T09:29:26.215Z,4.80
2018-05-11T09:31:53.929Z,5.80
2018-05-11T09:34:21.717Z,5.50
2018-05-11T09:36:49.572Z,5.23
2018-05-11T09:39:17.189Z,5.10
2018-05-11T09:41:44.741Z,4.90
2018-05-11T09:44:13.186Z,4.70
2018-05-11T09:46:40.831Z,4.57
2018-05-11T09:49:08.458Z,5.53
2018-05-11T09:51:36.169Z,6.20
2018-05-11T09:54:03.768Z,5.40
2018-05-11T09:56:31.440Z,5.37
2018-05-11T09:58:59.128Z,6.50
2018-05-11T10:01:26.716Z,5.90
2018-05-11T10:03:54.268Z,4.70
2018-05-11T10:06:21.873Z,4.60
2018-05-11T10:08:49.576Z,4.70
2018-05-11T10:11:17.268Z,5.30
2018-05-11T10:13:44.815Z,6.07
2018-05-11T10:16:12.420Z,5.40
2018-05-11T10:18:39.969Z,5.03
2018-05-11T10:21:07.515Z,5.27
2018-05-11T10:23:35.432Z,5.33
2018-05-11T10:26:02.967Z,5.27
2018-05-11T10:28:30.508Z,5.33
2018-05-11T10:30:58.708Z,5.60
2018-05-11T10:33:26.404Z,5.90
2018-05-11T10:35:53.953Z,5.80
2018-05-11T10:38:21.709Z,6.07
2018-05-11T10:40:49.266Z,6.03
2018-05-11T10:43:16.828Z,5.60
2018-05-11T10:45:44.523Z,6.50
2018-05-11T10:48:12.840Z,5.70
2018-05-11T10:50:40.461Z,6.30
2018-05-11T10:53:08.943Z,6.68
2018-05-11T10:55:37.263Z,6.73
2018-05-11T10:58:05.819Z,6.30
2018-05-11T11:00:33.601Z,5.73
2018-05-11T11:03:01.347Z,5.57
2018-05-11T11:05:29.077Z,6.33
2018-05-11T11:07:57.435Z,5.97
2018-05-11T11:10:25.157Z,5.73
2018-05-11T11:12:52.736Z,5.80
2018-05-11T11:15:20.353Z,5.80
2018-05-11T11:17:47.932Z,5.50
2018-05-11T11:20:15.475Z,5.20
2018-05-11T11:22:43.829Z,5.20
2018-05-11T11:25:12.878Z,5.53
2018-05-11T11:27:40.613Z,5.67
2018-05-11T11:30:08.476Z,5.37
2018-05-11T11:32:36.023Z,5.57
2018-05-11T11:35:04.472Z,5.50
2018-05-11T11:37:32.059Z,6.07
2018-05-11T11:39:59.794Z,5.62
2018-05-11T11:42:27.342Z,5.50
2018-05-11T11:44:54.956Z,5.70
2018-05-11T11:47:22.505Z,6.07
2018-05-11T11:49:50.108Z,6.93
2018-05-11T11:52:18.005Z,9.17
2018-05-11T11:54:46.318Z,9.50
2018-05-11T11:57:14.034Z,10.23
2018-05-11T11:59:41.741Z,5.63
2018-05-11T12:02:11.264Z,5.80
2018-05-11T12:04:38.809Z,5.90
2018-05-11T12:07:07.106Z,5.67
2018-05-11T12:09:34.662Z,5.60
2018-05-11T12:12:02.416Z,5.40
2018-05-11T12:14:30.008Z,5.63
2018-05-11T12:16:57.551Z,6.57
2018-05-11T12:19:25.106Z,6.40
2018-05-11T12:21:52.747Z,6.93
2018-05-11T12:24:20.317Z,6.73
2018-05-11T12:26:47.864Z,7.07
2018-05-11T12:29:15.440Z,7.40
2018-05-11T12:31:43.071Z,6.97
2018-05-11T12:34:10.922Z,7.17
2018-05-11T12:36:38.612Z,7.63
2018-05-11T12:39:06.486Z,7.83
2018-05-11T12:41:35.152Z,6.07
2018-05-11T12:44:02.831Z,4.70
2018-05-11T12:46:31.414Z,4.43
2018-05-11T12:48:59.153Z,5.30
2018-05-11T12:51:26.904Z,5.40
2018-05-11T12:53:54.652Z,4.37
2018-05-11T12:56:22.276Z,4.73
2018-05-11T12:58:50.734Z,3.90
2018-05-11T13:01:18.313Z,4.00
2018-05-11T13:03:46.758Z,3.50
2018-05-11T13:06:14.332Z,3.80
2018-05-11T13:08:42.256Z,3.20
2018-05-11T13:11:09.872Z,3.70
2018-05-11T13:13:38.194Z,3.80
2018-05-11T13:16:05.749Z,3.67
2018-05-11T13:18:33.439Z,3.33
2018-05-11T13:21:01.006Z,4.37
2018-05-11T13:23:28.914Z,4.50
2018-05-11T13:25:56.523Z,4.13
2018-05-11T13:28:25.019Z,5.70
2018-05-11T13:30:52.784Z,5.60
2018-05-11T13:33:20.504Z,6.13
2018-05-11T13:35:48.184Z,6.50
2018-05-11T13:38:16.195Z,6.33
2018-05-11T13:40:44.562Z,6.17
2018-05-11T13:43:13.055Z,4.87
2018-05-11T13:45:41.385Z,4.67
2018-05-11T13:48:09.168Z,5.50
2018-05-11T13:50:36.784Z,5.00
2018-05-11T13:53:04.664Z,5.27
2018-05-11T13:55:32.292Z,6.57
2018-05-11T13:57:59.979Z,7.33
2018-05-11T14:00:27.610Z,7.20
2018-05-11T14:02:56.128Z,10.90
2018-05-11T14:05:23.893Z,7.10
2018-05-11T14:07:51.622Z,5.80
2018-05-11T14:10:19.571Z,5.77
2018-05-11T14:12:47.092Z,5.47
2018-05-11T14:15:14.833Z,4.90
2018-05-11T14:17:42.515Z,6.10
2018-05-11T14:20:10.069Z,6.83
2018-05-11T14:22:37.869Z,6.00
2018-05-11T14:25:06.100Z,6.60
2018-05-11T14:27:34.070Z,5.23
2018-05-11T14:30:02.673Z,5.90
2018-05-11T14:32:30.336Z,6.00
2018-05-11T14:34:57.955Z,6.40
2018-05-11T14:37:26.054Z,6.90
2018-05-11T14:39:53.774Z,7.13
2018-05-11T14:42:21.560Z,9.03
2018-05-11T14:44:49.373Z,9.43
2018-05-11T14:47:17.224Z,8.10
2018-05-11T14:49:45.018Z,6.97
2018-05-11T14:52:12.581Z,8.10
2018-05-11T14:54:41.022Z,8.43
2018-05-11T14:57:08.605Z,8.83
2018-05-11T14:59:37.165Z,8.93
2018-05-11T15:02:04.953Z,11.23
2018-05-11T15:04:32.884Z,11.50
2018-05-11T15:07:00.622Z,10.97
2018-05-11T15:09:28.602Z,9.10
2018-05-11T15:11:56.335Z,9.07
2018-05-11T15:14:24.935Z,10.30
2018-05-11T15:16:52.845Z,10.40
2018-05-11T15:19:20.608Z,15.93
2018-05-11T15:21:48.270Z,18.90
2018-05-11T15:24:15.969Z,14.60
2018-05-11T15:26:43.714Z,12.00
2018-05-11T15:29:11.302Z,11.27
2018-05-11T15:31:39.278Z,10.97
2018-05-11T15:34:06.971Z,10.77
2018-05-11T15:36:34.876Z,10.53
2018-05-11T15:39:03.817Z,10.40
2018-05-11T15:41:31.466Z,7.00
2018-05-11T15:43:59.488Z,7.03
2018-05-11T15:46:28.073Z,8.33
2018-05-11T15:48:56.770Z,10.53
2018-05-11T15:51:25.102Z,9.77
2018-05-11T15:53:52.894Z,8.57
2018-05-11T15:56:20.621Z,8.07
2018-05-11T15:58:48.341Z,11.67
2018-05-11T16:01:16.726Z,8.13
2018-05-11T16:03:45.248Z,8.07
2018-05-11T16:06:12.824Z,7.70
2018-05-11T16:08:40.871Z,9.00
2018-05-11T16:11:09.357Z,8.63
2018-05-11T16:13:37.322Z,7.93
2018-05-11T16:16:05.231Z,8.03
2018-05-11T16:18:33.054Z,8.10
2018-05-11T16:21:00.621Z,7.87
2018-05-11T16:23:28.580Z,11.07
2018-05-11T16:25:57.130Z,11.17
2018-05-11T16:31:28.616Z,11.90
2018-05-11T16:33:56.242Z,10.00
2018-05-11T16:36:24.771Z,13.07
2018-05-11T16:38:52.436Z,14.40
2018-05-11T16:41:20.465Z,13.77
2018-05-11T16:43:49.191Z,12.50
2018-05-11T16:46:16.774Z,13.00
2018-05-11T16:48:44.416Z,12.90
2018-05-11T16:51:12.128Z,15.10
2018-05-11T16:53:40.756Z,13.87
2018-05-11T16:56:08.364Z,14.73
2018-05-11T16:58:35.988Z,15.20
2018-05-11T17:01:03.659Z,14.90
2018-05-11T17:03:31.665Z,15.83
2018-05-11T17:05:59.998Z,16.60
2018-05-11T17:08:27.697Z,20.37
2018-05-11T17:10:56.215Z,19.27
2018-05-11T17:13:23.969Z,18.93
2018-05-11T17:15:51.807Z,20.00
2018-05-11T17:18:20.383Z,22.37
2018-05-11T17:20:48.100Z,18.40
2018-05-11T17:23:15.863Z,17.03
2018-05-11T17:25:44.143Z,14.93
2018-05-11T17:28:11.743Z,15.87
2018-05-11T17:30:39.316Z,16.70
2018-05-11T17:33:08.005Z,16.70
2018-05-11T17:35:36.386Z,23.63
2018-05-11T17:38:04.889Z,21.70
2018-05-11T17:40:32.517Z,17.67
2018-05-11T17:43:01.055Z,18.20
2018-05-11T17:45:28.790Z,31.83
2018-05-11T17:47:56.413Z,26.10
2018-05-11T17:50:24.131Z,19.87
2018-05-11T17:52:51.709Z,19.87
2018-05-11T17:55:19.441Z,26.37
2018-05-11T17:57:47.131Z,26.37
2018-05-11T18:00:15.050Z,14.70
2018-05-11T18:02:42.976Z,17.37
2018-05-11T18:05:10.772Z,9.40
2018-05-11T18:07:39.347Z,9.83
2018-05-11T18:10:06.974Z,8.70
2018-05-11T18:12:34.641Z,8.70
2018-05-11T18:15:03.748Z,15.60
2018-05-11T18:17:31.632Z,13.73
2018-05-11T18:19:59.977Z,16.10
2018-05-11T18:22:27.556Z,18.60
2018-05-11T18:24:55.327Z,16.30
2018-05-11T18:27:23.677Z,21.03
2018-05-11T18:29:51.264Z,18.60
2018-05-11T18:32:19.648Z,17.07
2018-05-11T18:34:48.000Z,17.50
2018-05-11T18:37:15.630Z,19.20
2018-05-11T18:39:44.038Z,20.37
2018-05-11T18:42:11.695Z,19.77
2018-05-11T18:44:39.983Z,24.97
2018-05-11T18:47:08.963Z,30.07
2018-05-11T18:49:37.016Z,28.53
2018-05-11T18:52:04.737Z,31.60
2018-05-11T18:54:33.576Z,30.67
2018-05-11T18:57:00.897Z,32.37
2018-05-11T18:59:28.765Z,30.47
2018-05-11T19:01:56.598Z,25.53
2018-05-11T19:04:26.358Z,27.33
2018-05-11T19:06:54.450Z,30.03
2018-05-11T19:09:22.602Z,27.20
2018-05-11T19:11:50.476Z,26.87
2018-05-11T19:14:18.360Z,24.83
2018-05-11T19:16:46.391Z,24.27
2018-05-11T19:19:14.372Z,24.33
2018-05-11T19:21:41.955Z,22.73
2018-05-11T19:24:09.700Z,24.17
2018-05-11T19:26:37.438Z,21.43
2018-05-11T19:29:05.016Z,26.30
2018-05-11T19:31:32.727Z,25.53
2018-05-11T19:34:01.068Z,23.27
2018-05-11T19:36:28.769Z,24.73
2018-05-11T19:38:57.317Z,23.33
2018-05-11T19:41:25.147Z,21.43
2018-05-11T19:43:52.789Z,20.03
2018-05-11T19:46:21.322Z,18.80
2018-05-11T19:48:48.895Z,21.50
2018-05-11T19:51:16.588Z,23.40
2018-05-11T19:53:45.270Z,44.23
2018-05-11T19:56:13.717Z,29.70
2018-05-11T19:58:41.410Z,43.27
2018-05-11T20:01:09.043Z,40.87
2018-05-11T20:03:36.742Z,26.87
2018-05-11T20:06:05.149Z,19.67
2018-05-11T20:08:32.794Z,17.90
2018-05-11T20:11:00.541Z,16.00
2018-05-11T20:13:28.314Z,19.67
2018-05-11T20:15:56.035Z,19.87
2018-05-11T20:18:23.781Z,16.73
2018-05-11T20:20:51.669Z,15.03
2018-05-11T20:23:20.049Z,16.37
2018-05-11T20:25:47.877Z,16.63
2018-05-11T20:28:15.461Z,12.30
2018-05-11T20:30:43.277Z,14.23
2018-05-11T20:33:10.965Z,15.63
2018-05-11T20:35:38.544Z,16.00
2018-05-11T20:38:06.359Z,16.13
2018-05-11T20:40:34.050Z,16.90
2018-05-11T20:43:01.919Z,16.43
2018-05-11T20:45:29.784Z,18.00
2018-05-11T20:47:57.750Z,19.80
2018-05-11T20:50:25.520Z,22.33
2018-05-11T20:52:53.364Z,17.77
2018-05-11T20:55:22.031Z,14.90
2018-05-11T20:57:49.625Z,18.37
2018-05-11T21:00:17.398Z,14.43
2018-05-11T21:02:45.118Z,14.43
2018-05-11T21:05:13.742Z,20.30
2018-05-11T21:07:41.668Z,16.40
2018-05-11T21:10:10.109Z,16.07
2018-05-11T21:12:38.038Z,13.57
2018-05-11T21:15:05.815Z,15.07
2018-05-11T21:17:34.080Z,16.50
2018-05-11T21:20:02.056Z,18.40
2018-05-11T21:22:29.921Z,15.27
2018-05-11T21:24:57.581Z,15.30
2018-05-11T21:27:25.808Z,14.77
2018-05-11T21:29:54.192Z,15.53
2018-05-11T21:32:22.614Z,14.27
2018-05-11T21:34:50.275Z,13.60
2018-05-11T21:37:18.039Z,14.10
2018-05-11T21:39:45.718Z,15.07
2018-05-11T21:42:13.330Z,18.80
2018-05-11T21:44:41.129Z,15.90
2018-05-11T21:47:08.721Z,15.90
2018-05-11T21:49:37.537Z,15.20
2018-05-11T21:52:05.362Z,13.50
2018-05-11T21:54:33.003Z,12.80
2018-05-11T21:57:01.071Z,13.30
2018-05-11T21:59:28.817Z,14.83
2018-05-11T22:01:56.528Z,14.03
2018-05-11T22:04:24.255Z,15.17
2018-05-11T22:06:51.860Z,15.13
2018-05-11T22:09:19.416Z,14.07
2018-05-11T22:11:47.256Z,13.00
2018-05-11T22:14:15.791Z,13.60
2018-05-11T22:16:43.360Z,14.67
2018-05-11T22:19:11.064Z,16.80
2018-05-11T22:21:38.839Z,18.10
2018-05-11T22:24:06.409Z,20.00
2018-05-11T22:26:34.122Z,17.30
2018-05-11T22:29:02.013Z,15.33
2018-05-11T22:31:29.571Z,16.03
2018-05-11T22:33:57.134Z,19.30
2018-05-11T22:36:24.910Z,18.33
2018-05-11T22:38:54.341Z,18.53
2018-05-11T22:41:22.660Z,19.57
2018-05-11T22:43:50.452Z,19.33
2018-05-11T22:46:18.020Z,17.67
2018-05-11T22:48:45.597Z,17.73
2018-05-11T22:51:14.396Z,17.33
2018-05-11T22:53:42.111Z,18.57
2018-05-11T22:56:09.676Z,16.70
2018-05-11T22:58:37.385Z,16.20
2018-05-11T23:01:05.044Z,15.93
2018-05-11T23:03:32.739Z,16.50
2018-05-11T23:06:00.521Z,16.77
2018-05-11T23:08:28.116Z,16.30
2018-05-11T23:10:56.654Z,17.07
2018-05-11T23:13:24.255Z,16.27
2018-05-11T23:15:53.016Z,16.00
2018-05-11T23:18:20.684Z,15.73
2018-05-11T23:20:48.285Z,14.83
2018-05-11T23:23:15.944Z,13.53
2018-05-11T23:25:43.626Z,14.93
2018-05-11T23:28:11.412Z,15.33
2018-05-11T23:30:38.976Z,18.70
2018-05-11T23:33:06.556Z,19.80
2018-05-11T23:35:34.422Z,20.40
2018-05-11T23:38:02.940Z,17.33
2018-05-11T23:40:30.504Z,18.00
2018-05-11T23:42:58.093Z,17.40
2018-05-11T23:45:25.672Z,16.00
2018-05-11T23:47:53.648Z,15.07
2018-05-11T23:50:21.467Z,16.30
2018-05-11T23:52:49.098Z,16.57
2018-05-11T23:55:16.668Z,17.10
2018-05-11T23:57:44.483Z,18.00
